sensor_id;sensor_type;location;lat;lon;timestamp;temperature;humidity
60909;DHT22;46780;48.128;-1.704;2022-10-16T00:00:12;15.60;95.60
60909;DHT22;46780;48.128;-1.704;2022-10-16T00:02:38;15.50;95.60
60909;DHT22;46780;48.128;-1.704;2022-10-16T00:05:05;15.60;95.60
60909;DHT22;46780;48.128;-1.704;2022-10-16T00:07:32;15.60;95.70
60909;DHT22;46780;48.128;-1.704;2022-10-16T00:09:58;15.50;95.80
60909;DHT22;46780;48.128;-1.704;2022-10-16T00:12:26;15.50;95.80
60909;DHT22;46780;48.128;-1.704;2022-10-16T00:14:52;15.50;95.90
60909;DHT22;46780;48.128;-1.704;2022-10-16T00:17:19;15.50;96.00
60909;DHT22;46780;48.128;-1.704;2022-10-16T00:19:45;15.50;96.10
60909;DHT22;46780;48.128;-1.704;2022-10-16T00:22:12;15.50;96.20
60909;DHT22;46780;48.128;-1.704;2022-10-16T00:24:38;15.50;96.30
60909;DHT22;46780;48.128;-1.704;2022-10-16T00:27:04;15.50;96.30
60909;DHT22;46780;48.128;-1.704;2022-10-16T00:29:32;15.50;96.40
60909;DHT22;46780;48.128;-1.704;2022-10-16T00:31:59;15.50;96.50
60909;DHT22;46780;48.128;-1.704;2022-10-16T00:34:25;15.50;96.60
60909;DHT22;46780;48.128;-1.704;2022-10-16T00:36:52;15.50;96.70
60909;DHT22;46780;48.128;-1.704;2022-10-16T00:39:18;15.50;96.80
60909;DHT22;46780;48.128;-1.704;2022-10-16T00:41:45;15.50;96.80
60909;DHT22;46780;48.128;-1.704;2022-10-16T00:44:48;15.50;96.80
60909;DHT22;46780;48.128;-1.704;2022-10-16T00:47:21;15.50;96.90
60909;DHT22;46780;48.128;-1.704;2022-10-16T00:49:50;15.50;97.10
60909;DHT22;46780;48.128;-1.704;2022-10-16T00:52:17;15.50;97.30
60909;DHT22;46780;48.128;-1.704;2022-10-16T00:54:46;15.50;97.30
60909;DHT22;46780;48.128;-1.704;2022-10-16T00:57:13;15.50;97.30
60909;DHT22;46780;48.128;-1.704;2022-10-16T00:59:41;15.50;97.30
60909;DHT22;46780;48.128;-1.704;2022-10-16T01:02:15;15.50;97.40
60909;DHT22;46780;48.128;-1.704;2022-10-16T01:04:44;15.50;97.40
60909;DHT22;46780;48.128;-1.704;2022-10-16T01:07:14;15.50;97.40
60909;DHT22;46780;48.128;-1.704;2022-10-16T01:09:52;15.50;97.50
60909;DHT22;46780;48.128;-1.704;2022-10-16T01:12:26;15.50;97.60
60909;DHT22;46780;48.128;-1.704;2022-10-16T01:14:59;15.50;97.60
60909;DHT22;46780;48.128;-1.704;2022-10-16T01:17:33;15.50;97.60
60909;DHT22;46780;48.128;-1.704;2022-10-16T01:20:07;15.50;97.60
60909;DHT22;46780;48.128;-1.704;2022-10-16T01:22:46;15.50;98.00
60909;DHT22;46780;48.128;-1.704;2022-10-16T01:25:19;15.50;97.70
60909;DHT22;46780;48.128;-1.704;2022-10-16T01:27:50;15.60;97.80
60909;DHT22;46780;48.128;-1.704;2022-10-16T01:30:21;15.50;97.70
60909;DHT22;46780;48.128;-1.704;2022-10-16T01:32:52;15.60;97.80
60909;DHT22;46780;48.128;-1.704;2022-10-16T01:35:23;15.50;97.90
60909;DHT22;46780;48.128;-1.704;2022-10-16T01:37:54;15.50;97.90
60909;DHT22;46780;48.128;-1.704;2022-10-16T01:40:24;15.60;97.90
60909;DHT22;46780;48.128;-1.704;2022-10-16T01:42:57;15.50;98.00
60909;DHT22;46780;48.128;-1.704;2022-10-16T01:45:25;15.60;98.00
60909;DHT22;46780;48.128;-1.704;2022-10-16T01:47:53;15.60;98.00
60909;DHT22;46780;48.128;-1.704;2022-10-16T01:50:21;15.60;98.10
60909;DHT22;46780;48.128;-1.704;2022-10-16T01:52:50;15.60;98.10
60909;DHT22;46780;48.128;-1.704;2022-10-16T01:55:22;15.60;98.10
60909;DHT22;46780;48.128;-1.704;2022-10-16T01:57:50;15.60;98.00
60909;DHT22;46780;48.128;-1.704;2022-10-16T02:00:20;15.60;98.00
60909;DHT22;46780;48.128;-1.704;2022-10-16T02:02:48;15.60;98.00
60909;DHT22;46780;48.128;-1.704;2022-10-16T02:05:20;15.60;98.00
60909;DHT22;46780;48.128;-1.704;2022-10-16T02:07:48;15.60;97.90
60909;DHT22;46780;48.128;-1.704;2022-10-16T02:10:15;15.60;97.80
60909;DHT22;46780;48.128;-1.704;2022-10-16T02:12:45;15.60;97.80
60909;DHT22;46780;48.128;-1.704;2022-10-16T02:15:14;15.60;97.90
60909;DHT22;46780;48.128;-1.704;2022-10-16T02:17:41;15.60;97.80
60909;DHT22;46780;48.128;-1.704;2022-10-16T02:20:09;15.60;97.90
60909;DHT22;46780;48.128;-1.704;2022-10-16T02:22:39;15.60;97.90
60909;DHT22;46780;48.128;-1.704;2022-10-16T02:25:09;15.60;97.90
60909;DHT22;46780;48.128;-1.704;2022-10-16T02:27:41;15.60;97.80
60909;DHT22;46780;48.128;-1.704;2022-10-16T02:30:13;15.70;97.70
60909;DHT22;46780;48.128;-1.704;2022-10-16T02:32:44;15.60;97.70
60909;DHT22;46780;48.128;-1.704;2022-10-16T02:35:11;15.60;97.70
60909;DHT22;46780;48.128;-1.704;2022-10-16T02:37:38;15.60;97.40
60909;DHT22;46780;48.128;-1.704;2022-10-16T02:40:07;15.60;97.70
60909;DHT22;46780;48.128;-1.704;2022-10-16T02:42:36;15.60;97.70
60909;DHT22;46780;48.128;-1.704;2022-10-16T02:45:04;15.60;98.10
60909;DHT22;46780;48.128;-1.704;2022-10-16T02:47:31;15.60;97.70
60909;DHT22;46780;48.128;-1.704;2022-10-16T02:49:59;15.60;97.60
60909;DHT22;46780;48.128;-1.704;2022-10-16T02:52:26;15.60;97.60
60909;DHT22;46780;48.128;-1.704;2022-10-16T02:54:52;15.60;97.70
60909;DHT22;46780;48.128;-1.704;2022-10-16T02:57:19;15.60;97.70
60909;DHT22;46780;48.128;-1.704;2022-10-16T02:59:45;15.60;97.70
60909;DHT22;46780;48.128;-1.704;2022-10-16T03:02:12;15.60;97.70
60909;DHT22;46780;48.128;-1.704;2022-10-16T03:04:40;15.60;97.70
60909;DHT22;46780;48.128;-1.704;2022-10-16T03:07:08;15.60;97.50
60909;DHT22;46780;48.128;-1.704;2022-10-16T03:09:36;15.60;97.60
60909;DHT22;46780;48.128;-1.704;2022-10-16T03:12:04;15.60;97.70
60909;DHT22;46780;48.128;-1.704;2022-10-16T03:14:33;15.60;97.60
60909;DHT22;46780;48.128;-1.704;2022-10-16T03:17:01;15.60;97.50
60909;DHT22;46780;48.128;-1.704;2022-10-16T03:19:29;15.50;97.50
60909;DHT22;46780;48.128;-1.704;2022-10-16T03:21:57;15.50;97.50
60909;DHT22;46780;48.128;-1.704;2022-10-16T03:24:26;15.50;97.50
60909;DHT22;46780;48.128;-1.704;2022-10-16T03:26:55;15.50;97.90
60909;DHT22;46780;48.128;-1.704;2022-10-16T03:29:23;15.50;97.50
60909;DHT22;46780;48.128;-1.704;2022-10-16T03:31:50;15.40;97.60
60909;DHT22;46780;48.128;-1.704;2022-10-16T03:34:17;15.40;97.60
60909;DHT22;46780;48.128;-1.704;2022-10-16T03:36:44;15.40;97.80
60909;DHT22;46780;48.128;-1.704;2022-10-16T03:39:11;15.40;97.80
60909;DHT22;46780;48.128;-1.704;2022-10-16T03:41:39;15.40;97.90
60909;DHT22;46780;48.128;-1.704;2022-10-16T03:44:06;15.40;98.10
60909;DHT22;46780;48.128;-1.704;2022-10-16T03:46:33;15.40;98.10
60909;DHT22;46780;48.128;-1.704;2022-10-16T03:48:59;15.40;98.20
60909;DHT22;46780;48.128;-1.704;2022-10-16T03:51:26;15.40;98.30
60909;DHT22;46780;48.128;-1.704;2022-10-16T03:53:52;15.40;98.30
60909;DHT22;46780;48.128;-1.704;2022-10-16T03:56:19;15.40;98.40
60909;DHT22;46780;48.128;-1.704;2022-10-16T03:58:47;15.40;98.30
60909;DHT22;46780;48.128;-1.704;2022-10-16T04:01:15;15.40;98.30
60909;DHT22;46780;48.128;-1.704;2022-10-16T04:03:42;15.40;98.30
60909;DHT22;46780;48.128;-1.704;2022-10-16T04:06:08;15.40;98.30
60909;DHT22;46780;48.128;-1.704;2022-10-16T04:08:35;15.40;98.30
60909;DHT22;46780;48.128;-1.704;2022-10-16T04:11:02;15.40;98.30
60909;DHT22;46780;48.128;-1.704;2022-10-16T04:13:29;15.40;98.40
60909;DHT22;46780;48.128;-1.704;2022-10-16T04:15:57;15.40;98.40
60909;DHT22;46780;48.128;-1.704;2022-10-16T04:18:23;15.40;98.40
60909;DHT22;46780;48.128;-1.704;2022-10-16T04:20:50;15.40;98.40
60909;DHT22;46780;48.128;-1.704;2022-10-16T04:23:16;15.40;98.50
60909;DHT22;46780;48.128;-1.704;2022-10-16T04:25:43;15.40;98.50
60909;DHT22;46780;48.128;-1.704;2022-10-16T04:28:09;15.50;98.60
60909;DHT22;46780;48.128;-1.704;2022-10-16T04:30:38;15.50;98.60
60909;DHT22;46780;48.128;-1.704;2022-10-16T04:33:06;15.50;98.60
60909;DHT22;46780;48.128;-1.704;2022-10-16T04:35:32;15.50;98.60
60909;DHT22;46780;48.128;-1.704;2022-10-16T04:37:59;15.50;98.50
60909;DHT22;46780;48.128;-1.704;2022-10-16T04:40:25;15.60;98.50
60909;DHT22;46780;48.128;-1.704;2022-10-16T04:42:52;15.60;98.50
60909;DHT22;46780;48.128;-1.704;2022-10-16T04:45:18;15.60;98.40
60909;DHT22;46780;48.128;-1.704;2022-10-16T04:47:45;15.70;98.40
60909;DHT22;46780;48.128;-1.704;2022-10-16T04:50:12;15.70;98.40
60909;DHT22;46780;48.128;-1.704;2022-10-16T04:52:39;15.60;98.30
60909;DHT22;46780;48.128;-1.704;2022-10-16T04:55:06;15.70;98.20
60909;DHT22;46780;48.128;-1.704;2022-10-16T04:57:32;15.70;98.20
60909;DHT22;46780;48.128;-1.704;2022-10-16T05:00:00;15.70;98.10
60909;DHT22;46780;48.128;-1.704;2022-10-16T05:02:26;15.70;98.20
60909;DHT22;46780;48.128;-1.704;2022-10-16T05:04:53;15.80;98.20
60909;DHT22;46780;48.128;-1.704;2022-10-16T05:07:21;15.80;98.20
60909;DHT22;46780;48.128;-1.704;2022-10-16T05:09:47;15.70;98.10
60909;DHT22;46780;48.128;-1.704;2022-10-16T05:12:14;15.80;98.20
60909;DHT22;46780;48.128;-1.704;2022-10-16T05:14:40;15.80;98.20
60909;DHT22;46780;48.128;-1.704;2022-10-16T05:17:07;15.80;98.10
60909;DHT22;46780;48.128;-1.704;2022-10-16T05:19:33;15.80;98.10
60909;DHT22;46780;48.128;-1.704;2022-10-16T05:22:00;15.90;98.10
60909;DHT22;46780;48.128;-1.704;2022-10-16T05:24:28;15.90;98.10
60909;DHT22;46780;48.128;-1.704;2022-10-16T05:26:54;15.90;98.10
60909;DHT22;46780;48.128;-1.704;2022-10-16T05:29:21;15.90;98.10
60909;DHT22;46780;48.128;-1.704;2022-10-16T05:31:50;15.90;98.10
60909;DHT22;46780;48.128;-1.704;2022-10-16T05:34:17;15.90;98.10
60909;DHT22;46780;48.128;-1.704;2022-10-16T05:36:43;15.90;98.10
60909;DHT22;46780;48.128;-1.704;2022-10-16T05:39:10;15.90;98.20
60909;DHT22;46780;48.128;-1.704;2022-10-16T05:41:38;15.90;98.20
60909;DHT22;46780;48.128;-1.704;2022-10-16T05:44:05;15.90;98.10
60909;DHT22;46780;48.128;-1.704;2022-10-16T05:46:32;15.90;98.10
60909;DHT22;46780;48.128;-1.704;2022-10-16T05:48:58;15.90;98.10
60909;DHT22;46780;48.128;-1.704;2022-10-16T05:51:25;15.90;98.10
60909;DHT22;46780;48.128;-1.704;2022-10-16T05:53:52;16.00;98.10
60909;DHT22;46780;48.128;-1.704;2022-10-16T05:56:18;16.00;98.10
60909;DHT22;46780;48.128;-1.704;2022-10-16T05:58:46;16.00;98.10
60909;DHT22;46780;48.128;-1.704;2022-10-16T06:01:14;16.00;98.20
60909;DHT22;46780;48.128;-1.704;2022-10-16T06:03:41;16.00;98.20
60909;DHT22;46780;48.128;-1.704;2022-10-16T06:06:09;16.00;98.20
60909;DHT22;46780;48.128;-1.704;2022-10-16T06:08:36;16.00;98.10
60909;DHT22;46780;48.128;-1.704;2022-10-16T06:11:03;16.00;98.20
60909;DHT22;46780;48.128;-1.704;2022-10-16T06:13:30;16.00;98.20
60909;DHT22;46780;48.128;-1.704;2022-10-16T06:15:59;16.00;98.20
60909;DHT22;46780;48.128;-1.704;2022-10-16T06:18:26;16.00;98.20
60909;DHT22;46780;48.128;-1.704;2022-10-16T06:20:53;16.00;98.20
60909;DHT22;46780;48.128;-1.704;2022-10-16T06:23:19;16.00;98.20
60909;DHT22;46780;48.128;-1.704;2022-10-16T06:25:46;16.10;98.20
60909;DHT22;46780;48.128;-1.704;2022-10-16T06:28:14;16.10;98.20
60909;DHT22;46780;48.128;-1.704;2022-10-16T06:30:41;16.10;98.20
60909;DHT22;46780;48.128;-1.704;2022-10-16T06:33:09;16.10;98.20
60909;DHT22;46780;48.128;-1.704;2022-10-16T06:35:35;16.10;98.20
60909;DHT22;46780;48.128;-1.704;2022-10-16T06:38:02;16.10;98.10
60909;DHT22;46780;48.128;-1.704;2022-10-16T06:40:28;16.10;98.10
60909;DHT22;46780;48.128;-1.704;2022-10-16T06:42:55;16.10;98.10
60909;DHT22;46780;48.128;-1.704;2022-10-16T06:45:21;16.10;98.20
60909;DHT22;46780;48.128;-1.704;2022-10-16T06:47:49;16.10;98.20
60909;DHT22;46780;48.128;-1.704;2022-10-16T06:50:17;16.10;98.20
60909;DHT22;46780;48.128;-1.704;2022-10-16T06:52:43;16.10;98.20
60909;DHT22;46780;48.128;-1.704;2022-10-16T06:55:09;16.10;98.30
60909;DHT22;46780;48.128;-1.704;2022-10-16T06:57:36;16.10;98.30
60909;DHT22;46780;48.128;-1.704;2022-10-16T07:00:03;16.10;98.20
60909;DHT22;46780;48.128;-1.704;2022-10-16T07:02:30;16.00;98.30
60909;DHT22;46780;48.128;-1.704;2022-10-16T07:04:56;16.10;98.40
60909;DHT22;46780;48.128;-1.704;2022-10-16T07:07:24;16.10;98.50
60909;DHT22;46780;48.128;-1.704;2022-10-16T07:09:50;16.10;98.60
60909;DHT22;46780;48.128;-1.704;2022-10-16T07:12:17;16.00;98.60
60909;DHT22;46780;48.128;-1.704;2022-10-16T07:14:43;16.00;98.60
60909;DHT22;46780;48.128;-1.704;2022-10-16T07:17:10;16.00;98.70
60909;DHT22;46780;48.128;-1.704;2022-10-16T07:19:36;16.00;98.70
60909;DHT22;46780;48.128;-1.704;2022-10-16T07:22:03;16.00;98.70
60909;DHT22;46780;48.128;-1.704;2022-10-16T07:24:31;16.00;98.80
60909;DHT22;46780;48.128;-1.704;2022-10-16T07:26:57;16.00;98.80
60909;DHT22;46780;48.128;-1.704;2022-10-16T07:29:24;16.00;98.70
60909;DHT22;46780;48.128;-1.704;2022-10-16T07:31:50;16.00;98.70
60909;DHT22;46780;48.128;-1.704;2022-10-16T07:34:18;16.10;98.70
60909;DHT22;46780;48.128;-1.704;2022-10-16T07:36:47;16.10;98.60
60909;DHT22;46780;48.128;-1.704;2022-10-16T07:39:14;16.10;98.60
60909;DHT22;46780;48.128;-1.704;2022-10-16T07:41:42;16.20;98.60
60909;DHT22;46780;48.128;-1.704;2022-10-16T07:44:08;16.20;98.50
60909;DHT22;46780;48.128;-1.704;2022-10-16T07:46:35;16.20;98.70
60909;DHT22;46780;48.128;-1.704;2022-10-16T07:49:02;16.30;98.10
60909;DHT22;46780;48.128;-1.704;2022-10-16T07:51:28;16.30;98.00
60909;DHT22;46780;48.128;-1.704;2022-10-16T07:53:55;16.40;97.60
60909;DHT22;46780;48.128;-1.704;2022-10-16T07:56:22;16.40;97.20
60909;DHT22;46780;48.128;-1.704;2022-10-16T07:58:51;16.50;96.90
60909;DHT22;46780;48.128;-1.704;2022-10-16T08:01:18;16.50;96.60
60909;DHT22;46780;48.128;-1.704;2022-10-16T08:03:45;16.50;96.10
60909;DHT22;46780;48.128;-1.704;2022-10-16T08:06:12;16.50;95.90
60909;DHT22;46780;48.128;-1.704;2022-10-16T08:08:39;16.60;95.70
60909;DHT22;46780;48.128;-1.704;2022-10-16T08:11:05;16.70;95.70
60909;DHT22;46780;48.128;-1.704;2022-10-16T08:13:32;16.80;95.50
60909;DHT22;46780;48.128;-1.704;2022-10-16T08:16:00;17.00;95.00
60909;DHT22;46780;48.128;-1.704;2022-10-16T08:18:27;17.20;94.70
60909;DHT22;46780;48.128;-1.704;2022-10-16T08:20:57;17.50;94.20
60909;DHT22;46780;48.128;-1.704;2022-10-16T08:23:24;17.80;93.20
60909;DHT22;46780;48.128;-1.704;2022-10-16T08:25:50;18.00;92.00
60909;DHT22;46780;48.128;-1.704;2022-10-16T08:28:17;18.10;91.60
60909;DHT22;46780;48.128;-1.704;2022-10-16T08:30:43;18.10;91.00
60909;DHT22;46780;48.128;-1.704;2022-10-16T08:33:11;18.10;90.40
60909;DHT22;46780;48.128;-1.704;2022-10-16T08:35:37;18.10;90.10
60909;DHT22;46780;48.128;-1.704;2022-10-16T08:38:04;18.00;90.10
60909;DHT22;46780;48.128;-1.704;2022-10-16T08:40:33;18.00;90.00
60909;DHT22;46780;48.128;-1.704;2022-10-16T08:43:21;17.90;90.10
60909;DHT22;46780;48.128;-1.704;2022-10-16T08:46:04;17.80;90.20
60909;DHT22;46780;48.128;-1.704;2022-10-16T08:48:38;17.80;90.40
60909;DHT22;46780;48.128;-1.704;2022-10-16T08:51:09;17.70;90.50
60909;DHT22;46780;48.128;-1.704;2022-10-16T08:53:44;17.70;90.40
60909;DHT22;46780;48.128;-1.704;2022-10-16T08:56:12;17.60;90.40
60909;DHT22;46780;48.128;-1.704;2022-10-16T08:58:39;17.60;90.50
60909;DHT22;46780;48.128;-1.704;2022-10-16T09:01:14;17.60;90.50
60909;DHT22;46780;48.128;-1.704;2022-10-16T09:03:53;17.60;90.50
60909;DHT22;46780;48.128;-1.704;2022-10-16T09:06:40;17.60;90.40
60909;DHT22;46780;48.128;-1.704;2022-10-16T09:09:28;17.60;90.20
60909;DHT22;46780;48.128;-1.704;2022-10-16T09:12:02;17.50;90.30
60909;DHT22;46780;48.128;-1.704;2022-10-16T09:14:45;17.50;90.30
60909;DHT22;46780;48.128;-1.704;2022-10-16T09:17:24;17.60;90.30
60909;DHT22;46780;48.128;-1.704;2022-10-16T09:20:00;17.50;90.20
60909;DHT22;46780;48.128;-1.704;2022-10-16T09:22:31;17.50;90.20
60909;DHT22;46780;48.128;-1.704;2022-10-16T09:25:00;17.50;90.10
60909;DHT22;46780;48.128;-1.704;2022-10-16T09:27:31;17.40;89.50
60909;DHT22;46780;48.128;-1.704;2022-10-16T09:29:57;17.40;89.00
60909;DHT22;46780;48.128;-1.704;2022-10-16T09:32:24;17.40;89.10
60909;DHT22;46780;48.128;-1.704;2022-10-16T09:34:52;17.40;89.20
60909;DHT22;46780;48.128;-1.704;2022-10-16T09:37:23;17.40;89.30
60909;DHT22;46780;48.128;-1.704;2022-10-16T09:39:51;17.40;89.70
60909;DHT22;46780;48.128;-1.704;2022-10-16T09:42:19;17.40;90.00
60909;DHT22;46780;48.128;-1.704;2022-10-16T09:44:48;17.40;90.00
60909;DHT22;46780;48.128;-1.704;2022-10-16T09:47:17;17.40;90.00
60909;DHT22;46780;48.128;-1.704;2022-10-16T09:49:51;17.40;90.10
60909;DHT22;46780;48.128;-1.704;2022-10-16T09:52:20;17.40;90.10
60909;DHT22;46780;48.128;-1.704;2022-10-16T09:54:51;17.40;89.90
60909;DHT22;46780;48.128;-1.704;2022-10-16T09:57:22;17.50;88.80
60909;DHT22;46780;48.128;-1.704;2022-10-16T09:59:49;17.50;88.00
60909;DHT22;46780;48.128;-1.704;2022-10-16T10:02:18;17.50;87.40
60909;DHT22;46780;48.128;-1.704;2022-10-16T10:04:49;17.50;86.40
60909;DHT22;46780;48.128;-1.704;2022-10-16T10:07:25;17.50;86.40
60909;DHT22;46780;48.128;-1.704;2022-10-16T10:09:53;17.50;86.50
60909;DHT22;46780;48.128;-1.704;2022-10-16T10:12:21;17.60;86.70
60909;DHT22;46780;48.128;-1.704;2022-10-16T10:14:50;17.60;86.50
60909;DHT22;46780;48.128;-1.704;2022-10-16T10:17:19;17.60;86.50
60909;DHT22;46780;48.128;-1.704;2022-10-16T10:19:51;17.60;86.10
60909;DHT22;46780;48.128;-1.704;2022-10-16T10:22:31;17.70;85.50
60909;DHT22;46780;48.128;-1.704;2022-10-16T10:25:12;17.60;85.10
60909;DHT22;46780;48.128;-1.704;2022-10-16T10:27:47;17.60;84.90
60909;DHT22;46780;48.128;-1.704;2022-10-16T10:30:20;17.50;85.20
60909;DHT22;46780;48.128;-1.704;2022-10-16T10:32:58;17.50;85.20
60909;DHT22;46780;48.128;-1.704;2022-10-16T10:35:30;17.50;86.70
60909;DHT22;46780;48.128;-1.704;2022-10-16T10:38:11;17.40;86.40
60909;DHT22;46780;48.128;-1.704;2022-10-16T10:40:48;17.40;86.70
60909;DHT22;46780;48.128;-1.704;2022-10-16T10:43:29;17.30;87.20
60909;DHT22;46780;48.128;-1.704;2022-10-16T10:46:03;17.20;87.30
60909;DHT22;46780;48.128;-1.704;2022-10-16T10:48:54;17.20;87.90
60909;DHT22;46780;48.128;-1.704;2022-10-16T10:51:29;17.10;89.10
60909;DHT22;46780;48.128;-1.704;2022-10-16T10:54:10;17.00;88.90
60909;DHT22;46780;48.128;-1.704;2022-10-16T10:56:44;17.00;88.90
60909;DHT22;46780;48.128;-1.704;2022-10-16T10:59:37;16.90;89.40
60909;DHT22;46780;48.128;-1.704;2022-10-16T11:02:13;16.90;89.70
60909;DHT22;46780;48.128;-1.704;2022-10-16T11:04:57;16.90;90.00
60909;DHT22;46780;48.128;-1.704;2022-10-16T11:07:28;16.80;90.30
60909;DHT22;46780;48.128;-1.704;2022-10-16T11:10:02;16.70;90.50
60909;DHT22;46780;48.128;-1.704;2022-10-16T11:12:32;16.70;90.40
60909;DHT22;46780;48.128;-1.704;2022-10-16T11:15:04;16.70;90.70
60909;DHT22;46780;48.128;-1.704;2022-10-16T11:17:39;16.70;90.90
60909;DHT22;46780;48.128;-1.704;2022-10-16T11:20:14;16.60;91.00
60909;DHT22;46780;48.128;-1.704;2022-10-16T11:22:43;16.60;91.20
60909;DHT22;46780;48.128;-1.704;2022-10-16T11:25:16;16.50;91.40
60909;DHT22;46780;48.128;-1.704;2022-10-16T11:27:49;16.50;91.60
60909;DHT22;46780;48.128;-1.704;2022-10-16T11:30:21;16.60;91.70
60909;DHT22;46780;48.128;-1.704;2022-10-16T11:33:02;16.50;91.90
60909;DHT22;46780;48.128;-1.704;2022-10-16T11:35:38;16.50;91.90
60909;DHT22;46780;48.128;-1.704;2022-10-16T11:38:12;16.50;92.10
60909;DHT22;46780;48.128;-1.704;2022-10-16T11:40:45;16.50;92.30
60909;DHT22;46780;48.128;-1.704;2022-10-16T11:43:17;16.50;92.50
60909;DHT22;46780;48.128;-1.704;2022-10-16T11:45:49;16.50;92.80
60909;DHT22;46780;48.128;-1.704;2022-10-16T11:48:23;16.50;93.10
60909;DHT22;46780;48.128;-1.704;2022-10-16T11:50:53;16.50;93.20
60909;DHT22;46780;48.128;-1.704;2022-10-16T11:53:27;16.50;93.50
60909;DHT22;46780;48.128;-1.704;2022-10-16T11:55:56;16.50;93.60
60909;DHT22;46780;48.128;-1.704;2022-10-16T11:58:25;16.50;93.80
60909;DHT22;46780;48.128;-1.704;2022-10-16T12:00:58;16.50;93.90
60909;DHT22;46780;48.128;-1.704;2022-10-16T12:03:30;16.60;94.10
60909;DHT22;46780;48.128;-1.704;2022-10-16T12:06:11;16.60;94.20
60909;DHT22;46780;48.128;-1.704;2022-10-16T12:08:43;16.60;94.30
60909;DHT22;46780;48.128;-1.704;2022-10-16T12:11:24;16.60;94.40
60909;DHT22;46780;48.128;-1.704;2022-10-16T12:14:07;16.60;94.40
60909;DHT22;46780;48.128;-1.704;2022-10-16T12:16:52;16.50;94.60
60909;DHT22;46780;48.128;-1.704;2022-10-16T12:19:19;16.60;94.70
60909;DHT22;46780;48.128;-1.704;2022-10-16T12:21:46;16.50;94.80
60909;DHT22;46780;48.128;-1.704;2022-10-16T12:24:31;16.60;94.90
60909;DHT22;46780;48.128;-1.704;2022-10-16T12:26:59;16.60;95.10
60909;DHT22;46780;48.128;-1.704;2022-10-16T12:29:33;16.60;95.20
60909;DHT22;46780;48.128;-1.704;2022-10-16T12:32:00;16.60;95.30
60909;DHT22;46780;48.128;-1.704;2022-10-16T12:34:29;16.60;95.30
60909;DHT22;46780;48.128;-1.704;2022-10-16T12:37:06;16.70;95.40
60909;DHT22;46780;48.128;-1.704;2022-10-16T12:39:35;16.70;95.50
60909;DHT22;46780;48.128;-1.704;2022-10-16T12:42:05;16.70;95.70
60909;DHT22;46780;48.128;-1.704;2022-10-16T12:44:33;16.80;95.80
60909;DHT22;46780;48.128;-1.704;2022-10-16T12:47:00;16.80;95.90
60909;DHT22;46780;48.128;-1.704;2022-10-16T12:49:34;16.80;96.00
60909;DHT22;46780;48.128;-1.704;2022-10-16T12:52:02;16.90;96.10
60909;DHT22;46780;48.128;-1.704;2022-10-16T12:54:30;16.90;96.10
60909;DHT22;46780;48.128;-1.704;2022-10-16T12:57:17;16.90;96.20
60909;DHT22;46780;48.128;-1.704;2022-10-16T12:59:52;17.00;96.30
60909;DHT22;46780;48.128;-1.704;2022-10-16T13:02:44;17.10;96.20
60909;DHT22;46780;48.128;-1.704;2022-10-16T13:05:30;17.10;96.20
60909;DHT22;46780;48.128;-1.704;2022-10-16T13:08:18;17.20;96.20
60909;DHT22;46780;48.128;-1.704;2022-10-16T13:10:57;17.20;96.20
60909;DHT22;46780;48.128;-1.704;2022-10-16T13:16:24;17.30;96.20
60909;DHT22;46780;48.128;-1.704;2022-10-16T13:19:01;17.40;96.20
60909;DHT22;46780;48.128;-1.704;2022-10-16T13:21:39;17.40;96.20
60909;DHT22;46780;48.128;-1.704;2022-10-16T13:24:21;17.50;96.20
60909;DHT22;46780;48.128;-1.704;2022-10-16T13:26:57;17.50;96.20
60909;DHT22;46780;48.128;-1.704;2022-10-16T13:29:31;17.60;96.20
60909;DHT22;46780;48.128;-1.704;2022-10-16T13:31:58;17.60;96.10
60909;DHT22;46780;48.128;-1.704;2022-10-16T13:34:25;17.70;96.00
60909;DHT22;46780;48.128;-1.704;2022-10-16T13:36:53;17.70;96.00
60909;DHT22;46780;48.128;-1.704;2022-10-16T13:39:22;17.70;95.90
60909;DHT22;46780;48.128;-1.704;2022-10-16T13:42:01;17.80;96.00
60909;DHT22;46780;48.128;-1.704;2022-10-16T13:44:30;17.80;96.10
60909;DHT22;46780;48.128;-1.704;2022-10-16T13:47:00;17.80;96.20
60909;DHT22;46780;48.128;-1.704;2022-10-16T13:49:27;17.90;96.30
60909;DHT22;46780;48.128;-1.704;2022-10-16T13:51:55;18.00;96.30
60909;DHT22;46780;48.128;-1.704;2022-10-16T13:54:21;18.10;96.30
60909;DHT22;46780;48.128;-1.704;2022-10-16T13:56:48;18.10;96.30
60909;DHT22;46780;48.128;-1.704;2022-10-16T13:59:24;18.20;96.40
60909;DHT22;46780;48.128;-1.704;2022-10-16T14:01:54;18.30;96.30
60909;DHT22;46780;48.128;-1.704;2022-10-16T14:04:22;18.30;96.40
60909;DHT22;46780;48.128;-1.704;2022-10-16T14:06:50;18.40;96.40
60909;DHT22;46780;48.128;-1.704;2022-10-16T14:09:22;18.50;96.30
60909;DHT22;46780;48.128;-1.704;2022-10-16T14:11:50;18.60;96.20
60909;DHT22;46780;48.128;-1.704;2022-10-16T14:14:17;18.70;96.20
60909;DHT22;46780;48.128;-1.704;2022-10-16T14:16:44;18.70;96.00
60909;DHT22;46780;48.128;-1.704;2022-10-16T14:19:19;18.80;95.90
60909;DHT22;46780;48.128;-1.704;2022-10-16T14:21:46;18.90;95.70
60909;DHT22;46780;48.128;-1.704;2022-10-16T14:24:14;18.90;95.40
60909;DHT22;46780;48.128;-1.704;2022-10-16T14:26:48;19.00;95.30
60909;DHT22;46780;48.128;-1.704;2022-10-16T14:29:18;19.00;95.10
60909;DHT22;46780;48.128;-1.704;2022-10-16T14:31:54;19.00;95.00
60909;DHT22;46780;48.128;-1.704;2022-10-16T14:34:28;19.10;95.00
60909;DHT22;46780;48.128;-1.704;2022-10-16T14:36:55;19.20;95.00
60909;DHT22;46780;48.128;-1.704;2022-10-16T14:39:23;19.30;94.70
60909;DHT22;46780;48.128;-1.704;2022-10-16T14:41:52;19.30;94.90
60909;DHT22;46780;48.128;-1.704;2022-10-16T14:44:27;19.30;94.40
60909;DHT22;46780;48.128;-1.704;2022-10-16T14:46:57;19.40;94.30
60909;DHT22;46780;48.128;-1.704;2022-10-16T14:49:25;19.40;94.20
60909;DHT22;46780;48.128;-1.704;2022-10-16T14:51:52;19.40;94.00
60909;DHT22;46780;48.128;-1.704;2022-10-16T14:54:19;19.50;94.10
60909;DHT22;46780;48.128;-1.704;2022-10-16T14:56:47;19.60;94.10
60909;DHT22;46780;48.128;-1.704;2022-10-16T14:59:17;19.60;94.20
60909;DHT22;46780;48.128;-1.704;2022-10-16T15:01:44;19.70;94.10
60909;DHT22;46780;48.128;-1.704;2022-10-16T15:04:12;19.70;93.90
60909;DHT22;46780;48.128;-1.704;2022-10-16T15:06:41;19.80;93.70
60909;DHT22;46780;48.128;-1.704;2022-10-16T15:09:07;19.80;93.70
60909;DHT22;46780;48.128;-1.704;2022-10-16T15:11:34;19.90;93.50
60909;DHT22;46780;48.128;-1.704;2022-10-16T15:14:00;19.90;93.40
60909;DHT22;46780;48.128;-1.704;2022-10-16T15:16:27;19.90;93.20
60909;DHT22;46780;48.128;-1.704;2022-10-16T15:18:54;19.90;93.20
60909;DHT22;46780;48.128;-1.704;2022-10-16T15:21:26;19.90;93.00
60909;DHT22;46780;48.128;-1.704;2022-10-16T15:23:55;19.90;93.00
60909;DHT22;46780;48.128;-1.704;2022-10-16T15:26:22;19.80;92.90
60909;DHT22;46780;48.128;-1.704;2022-10-16T15:28:48;19.80;93.00
60909;DHT22;46780;48.128;-1.704;2022-10-16T15:31:15;19.70;93.00
60909;DHT22;46780;48.128;-1.704;2022-10-16T15:33:42;19.70;93.20